Time;durP1;ratioP1;P1;durP2;ratioP2;P2;SDS_P1;SDS_P2;PMS_P1;PMS_P2;Temp;Humidity;BMP_temperature;BMP_pressure;BME280_temperature;BME280_humidity;BME280_pressure;Samples;Min_cycle;Max_cycle;Signal;HPM_P1;HPM_P2
2022/07/05 00:02:03;;;;;;;4.70;4.08;;;;;;;20.42;70.41;96663.44;1645236;86;21433;-85
2022/07/05 00:04:28;;;;;;;4.30;3.65;;;;;;;20.38;71.16;96669.16;1642216;86;20989;-84
2022/07/05 00:09:38;;;;;;;5.78;3.70;;;;;;;20.32;72.36;96672.72;1638112;86;21056;-85
2022/07/05 00:12:04;;;;;;;4.50;3.90;;;;;;;20.30;73.42;96675.32;1627916;86;21590;-84
2022/07/05 00:14:30;;;;;;;7.70;4.15;;;;;;;20.22;73.91;96671.23;1641390;86;20973;-85
2022/07/05 00:16:56;;;;;;;8.80;4.40;;;;;;;20.16;74.91;96669.52;1628521;86;20988;-85
2022/07/05 00:19:22;;;;;;;6.10;4.65;;;;;;;20.08;75.46;96666.75;1638820;85;21042;-85
2022/07/05 00:21:47;;;;;;;6.97;4.70;;;;;;;20.03;76.23;96664.02;1647848;85;21080;-85
2022/07/05 00:24:13;;;;;;;7.55;4.87;;;;;;;19.97;76.91;96662.82;1608541;85;21343;-85
2022/07/05 00:26:39;;;;;;;8.33;4.90;;;;;;;19.89;77.26;96661.37;1624754;87;20964;-85
2022/07/05 00:29:04;;;;;;;6.75;5.30;;;;;;;19.84;78.13;96663.08;1632568;85;20991;-85
2022/07/05 00:31:30;;;;;;;5.95;4.70;;;;;;;19.78;78.52;96661.67;1624577;85;21019;-85
2022/07/05 00:33:56;;;;;;;7.75;5.53;;;;;;;19.76;78.82;96663.73;1614951;85;21036;-85
2022/07/05 00:36:22;;;;;;;7.12;5.12;;;;;;;19.74;79.07;96666.33;1609331;85;21039;-86
2022/07/05 00:38:48;;;;;;;8.35;5.28;;;;;;;19.73;79.26;96665.53;1609024;85;21422;-85
2022/07/05 00:41:14;;;;;;;7.47;6.05;;;;;;;19.71;79.48;96663.64;1615228;88;21048;-85
2022/07/05 00:44:00;;;;;;;9.60;5.95;;;;;;;19.63;79.79;96656.59;1620820;85;21425;-86
2022/07/05 00:46:26;;;;;;;8.80;5.40;;;;;;;19.63;79.79;96656.59;1632693;87;21104;-85
2022/07/05 00:48:52;;;;;;;7.58;6.20;;;;;;;19.59;80.23;96657.58;1626385;85;20968;-85
2022/07/05 00:51:18;;;;;;;7.62;5.92;;;;;;;19.62;80.43;96661.06;1629424;87;21044;-86
2022/07/05 00:53:44;;;;;;;6.30;5.70;;;;;;;19.58;80.35;96657.30;1609067;87;21422;-87
2022/07/05 00:56:11;;;;;;;8.35;5.97;;;;;;;19.53;80.62;96662.44;1612705;89;21071;-86
2022/07/05 00:58:37;;;;;;;6.03;5.47;;;;;;;19.51;80.66;96660.53;1611245;85;21044;-85
2022/07/05 01:01:04;;;;;;;6.17;5.58;;;;;;;19.45;80.82;96654.87;1607257;87;21087;-85
2022/07/05 01:03:30;;;;;;;6.65;5.92;;;;;;;19.43;80.97;96652.98;1611016;85;21116;-86
2022/07/05 01:05:56;;;;;;;6.90;6.15;;;;;;;19.39;81.01;96652.66;1620860;88;21091;-87
2022/07/05 01:08:22;;;;;;;5.72;5.20;;;;;;;19.37;80.97;96643.38;1626539;85;20983;-86
2022/07/05 01:10:48;;;;;;;7.30;6.28;;;;;;;19.32;80.68;96641.41;1602766;89;21015;-86
2022/07/05 01:13:14;;;;;;;6.53;5.80;;;;;;;19.27;81.26;96637.88;1626694;87;21478;-86
2022/07/05 01:15:40;;;;;;;8.53;5.67;;;;;;;19.24;81.25;96637.03;1612722;85;21018;-86
2022/07/05 01:18:06;;;;;;;6.10;5.50;;;;;;;19.22;81.63;96639.09;1610468;87;21012;-86
2022/07/05 01:20:32;;;;;;;6.58;5.75;;;;;;;19.21;81.89;96640.13;1640454;84;21048;-86
2022/07/05 01:22:59;;;;;;;6.67;4.87;;;;;;;19.21;81.87;96640.92;1650885;84;21020;-86
2022/07/05 01:25:26;;;;;;;5.65;4.90;;;;;;;19.19;81.81;96635.86;1648221;84;20962;-86
2022/07/05 01:27:53;;;;;;;6.25;4.05;;;;;;;19.19;81.80;96644.28;1665917;84;20998;-86
2022/07/05 01:30:18;;;;;;;4.22;3.33;;;;;;;19.17;81.91;96637.13;1670023;84;20983;-85
2022/07/05 01:32:44;;;;;;;3.47;3.12;;;;;;;19.13;81.87;96638.11;1657118;84;21061;-84
2022/07/05 01:35:11;;;;;;;3.22;2.62;;;;;;;19.14;82.27;96644.17;1663006;84;21341;-85
2022/07/05 01:37:37;;;;;;;2.75;2.30;;;;;;;19.11;82.48;96640.17;1638741;86;21055;-86
2022/07/05 01:40:04;;;;;;;2.70;2.17;;;;;;;19.03;82.63;96633.91;1661752;84;21473;-87
2022/07/05 01:42:29;;;;;;;2.50;2.30;;;;;;;18.96;83.05;96634.55;1644054;84;20981;-86
2022/07/05 01:44:55;;;;;;;4.90;2.20;;;;;;;18.91;83.14;96627.06;1650946;84;21000;-85
2022/07/05 01:47:22;;;;;;;4.08;2.35;;;;;;;18.90;83.25;96627.58;1654169;84;21171;-87
2022/07/05 01:49:49;;;;;;;2.60;2.40;;;;;;;18.88;83.66;96621.22;1658740;84;20984;-86
2022/07/05 01:52:17;;;;;;;5.12;2.80;;;;;;;18.84;83.84;96621.38;1644446;84;21037;-87
2022/07/05 01:54:43;;;;;;;4.20;3.37;;;;;;;18.79;83.85;96618.63;1663887;84;20951;-86
2022/07/05 01:57:09;;;;;;;6.08;3.42;;;;;;;18.78;84.14;96620.17;1640461;84;21087;-86
2022/07/05 01:59:35;;;;;;;4.20;3.90;;;;;;;18.76;84.25;96627.50;1644520;84;21027;-85
2022/07/05 02:02:03;;;;;;;5.58;2.60;;;;;;;18.72;84.34;96619.78;1650268;84;21009;-86
2022/07/05 02:04:29;;;;;;;3.67;2.95;;;;;;;18.68;84.59;96618.09;1670724;84;20967;-86
2022/07/05 02:06:54;;;;;;;4.22;2.70;;;;;;;18.64;84.75;96618.27;1643798;85;20988;-85
2022/07/05 02:09:20;;;;;;;2.72;2.52;;;;;;;18.61;84.99;96617.37;1638828;86;21354;-85
2022/07/05 02:11:46;;;;;;;2.75;2.40;;;;;;;18.59;85.06;96620.75;1655927;84;21033;-85
2022/07/05 02:14:11;;;;;;;4.67;2.30;;;;;;;18.57;85.08;96619.66;1638902;84;21014;-85
2022/07/05 02:16:37;;;;;;;3.33;3.02;;;;;;;18.58;85.30;96619.95;1642365;84;21416;-86
2022/07/05 02:19:03;;;;;;;3.02;2.72;;;;;;;18.54;85.44;96609.56;1650585;84;21022;-85
2022/07/05 02:21:29;;;;;;;3.33;2.95;;;;;;;18.49;85.37;96612.59;1680038;84;21099;-85
2022/07/05 02:23:54;;;;;;;3.25;2.92;;;;;;;18.44;85.61;96616.42;1655505;84;21102;-86
2022/07/05 02:26:20;;;;;;;3.85;2.80;;;;;;;18.40;85.90;96613.96;1668383;84;21455;-86
2022/07/05 02:28:46;;;;;;;3.47;2.77;;;;;;;18.36;85.93;96618.84;1683022;84;20991;-85
2022/07/05 02:31:12;;;;;;;3.33;3.02;;;;;;;18.34;85.91;96617.47;1655989;84;20979;-86
2022/07/05 02:33:37;;;;;;;4.50;2.58;;;;;;;18.29;85.57;96613.70;1656256;84;21020;-86
2022/07/05 02:36:12;;;;;;;3.00;2.58;;;;;;;18.24;85.63;96614.09;1664455;84;21107;-85
2022/07/05 02:38:38;;;;;;;3.47;2.40;;;;;;;18.15;85.61;96608.33;1685222;85;21412;-85
2022/07/05 02:41:07;;;;;;;2.92;2.50;;;;;;;18.12;85.87;96606.66;1657547;84;21338;-87
2022/07/05 02:43:33;;;;;;;3.25;3.05;;;;;;;18.07;86.12;96606.03;1666268;84;21031;-87
2022/07/05 02:46:03;;;;;;;5.28;3.50;;;;;;;18.03;86.17;96606.67;1654689;84;21022;-86
2022/07/05 02:48:29;;;;;;;4.90;4.05;;;;;;;17.98;86.50;96612.09;1675310;84;20983;-86
2022/07/05 02:50:55;;;;;;;4.15;3.75;;;;;;;17.97;86.73;96613.12;1651862;84;21049;-85
2022/07/05 02:53:21;;;;;;;5.97;3.72;;;;;;;17.99;86.90;96613.70;1653401;84;21027;-86
2022/07/05 02:55:46;;;;;;;5.42;3.72;;;;;;;18.02;86.94;96616.91;1680678;84;21026;-85
2022/07/05 02:58:12;;;;;;;3.30;2.87;;;;;;;18.00;87.01;96613.19;1656978;84;20979;-86
2022/07/05 03:00:38;;;;;;;3.27;2.83;;;;;;;17.97;87.20;96612.32;1658256;84;22088;-85
2022/07/05 03:03:03;;;;;;;3.70;3.30;;;;;;;17.95;87.31;96611.74;1683626;84;21430;-86
2022/07/05 03:05:29;;;;;;;4.72;2.90;;;;;;;17.93;87.23;96611.97;1650262;84;20970;-85
2022/07/05 03:07:56;;;;;;;3.40;3.05;;;;;;;17.91;87.42;96615.34;1662959;84;21040;-85
2022/07/05 03:10:21;;;;;;;3.52;3.22;;;;;;;17.88;87.40;96611.81;1649637;84;21393;-85
2022/07/05 03:12:47;;;;;;;3.42;3.12;;;;;;;17.90;87.49;96615.56;1652040;85;21019;-85
2022/07/05 03:15:13;;;;;;;4.15;3.75;;;;;;;17.89;87.92;96625.24;1652252;84;20983;-85
2022/07/05 03:17:39;;;;;;;5.55;4.10;;;;;;;17.84;88.02;96624.31;1671695;84;20986;-85
2022/07/05 03:20:06;;;;;;;4.55;3.95;;;;;;;17.79;88.14;96627.61;1653246;84;21032;-86
2022/07/05 03:22:32;;;;;;;4.62;4.08;;;;;;;17.76;88.44;96630.69;1656316;84;21032;-86
2022/07/05 03:24:58;;;;;;;4.72;3.80;;;;;;;17.72;88.93;96626.88;1638982;84;20993;-86
2022/07/05 03:27:23;;;;;;;3.95;3.50;;;;;;;17.69;89.21;96630.75;1645878;84;21078;-86
2022/07/05 03:29:49;;;;;;;4.60;3.55;;;;;;;17.67;89.33;96630.14;1654188;84;20972;-86
2022/07/05 03:32:15;;;;;;;4.65;4.20;;;;;;;17.65;89.45;96634.02;1663383;84;21417;-85
2022/07/05 03:34:41;;;;;;;3.92;3.50;;;;;;;17.63;89.54;96634.75;1671648;84;20951;-86
2022/07/05 03:37:07;;;;;;;4.15;3.75;;;;;;;17.60;89.70;96634.68;1671599;84;20982;-85
2022/07/05 03:39:33;;;;;;;5.45;3.70;;;;;;;17.58;89.85;96634.61;1671682;83;21047;-85
2022/07/05 03:41:58;;;;;;;4.37;3.98;;;;;;;17.57;90.04;96642.17;1653085;84;21047;-85
2022/07/05 03:44:24;;;;;;;5.80;3.92;;;;;;;17.54;90.06;96638.16;1639821;84;21110;-85
2022/07/05 03:46:50;;;;;;;4.72;4.30;;;;;;;17.53;90.22;96636.56;1650458;84;20982;-85
2022/07/05 03:49:15;;;;;;;4.25;3.87;;;;;;;17.53;90.32;96639.19;1653154;84;20970;-85
2022/07/05 03:51:41;;;;;;;4.90;3.80;;;;;;;17.51;90.41;96643.86;1657412;84;21325;-85
2022/07/05 03:54:07;;;;;;;4.25;3.95;;;;;;;17.52;90.42;96638.90;1656130;84;20959;-85
2022/07/05 03:56:32;;;;;;;4.22;3.35;;;;;;;17.54;90.50;96643.93;1652043;84;21009;-86
2022/07/05 03:58:58;;;;;;;4.08;2.90;;;;;;;17.55;90.78;96645.02;1661947;84;21369;-86
2022/07/05 04:01:24;;;;;;;4.20;3.33;;;;;;;17.55;90.93;96645.02;1657329;84;20998;-86
2022/07/05 04:03:49;;;;;;;4.08;3.05;;;;;;;17.54;90.96;96642.11;1663148;84;21072;-86
2022/07/05 04:06:15;;;;;;;3.60;3.22;;;;;;;17.51;90.94;96643.06;1641936;84;21330;-86
2022/07/05 04:08:41;;;;;;;4.15;3.42;;;;;;;17.50;90.92;96637.52;1663051;84;21043;-86
2022/07/05 04:11:09;;;;;;;3.85;3.55;;;;;;;17.50;91.11;96640.14;1630653;84;21015;-86
2022/07/05 04:13:34;;;;;;;3.55;3.25;;;;;;;17.48;91.20;96644.81;1663764;84;21413;-85
2022/07/05 04:16:00;;;;;;;3.90;3.55;;;;;;;17.48;91.42;96638.25;1671167;86;20966;-85
2022/07/05 04:18:26;;;;;;;5.60;3.25;;;;;;;17.47;91.48;96641.39;1671284;86;20974;-85
2022/07/05 04:20:52;;;;;;;4.05;3.47;;;;;;;17.48;91.53;96642.19;1668148;85;21008;-85
2022/07/05 04:23:18;;;;;;;3.85;3.42;;;;;;;17.48;91.58;96644.81;1656458;86;21026;-86
2022/07/05 04:25:43;;;;;;;3.90;3.30;;;;;;;17.47;91.73;96647.95;1656986;86;21370;-86
2022/07/05 04:28:09;;;;;;;3.87;3.45;;;;;;;17.47;91.89;96658.46;1656816;86;21023;-86
2022/07/05 04:30:35;;;;;;;3.72;3.10;;;;;;;17.49;91.99;96662.98;1656472;86;21047;-86
2022/07/05 04:33:00;;;;;;;3.30;3.00;;;;;;;17.54;91.96;96670.20;1656543;86;21087;-86
2022/07/05 04:35:26;;;;;;;3.55;3.25;;;;;;;17.59;91.91;96678.25;1637377;86;21012;-86
2022/07/05 04:37:52;;;;;;;3.30;3.00;;;;;;;17.60;91.92;96676.72;1646893;86;21055;-84
2022/07/05 04:40:18;;;;;;;3.90;3.50;;;;;;;17.63;91.88;96682.05;1622643;86;21045;-85
2022/07/05 04:42:43;;;;;;;4.60;3.00;;;;;;;17.65;91.90;96684.74;1622748;86;21447;-84
2022/07/05 04:45:09;;;;;;;3.70;2.62;;;;;;;17.68;91.86;96688.27;1652845;86;20948;-85
2022/07/05 04:47:35;;;;;;;3.85;3.05;;;;;;;17.70;91.81;96689.36;1655951;86;21344;-84
2022/07/05 04:50:01;;;;;;;5.55;3.17;;;;;;;17.72;91.59;96689.95;1645616;86;21059;-86
2022/07/05 04:52:27;;;;;;;4.47;3.62;;;;;;;17.76;91.35;96696.39;1648127;86;21037;-86
2022/07/05 04:54:53;;;;;;;4.55;4.15;;;;;;;17.78;91.39;96693.55;1642247;87;21365;-86
2022/07/05 04:57:19;;;;;;;4.45;3.87;;;;;;;17.81;91.20;96697.84;1626854;86;21072;-86
2022/07/05 04:59:44;;;;;;;4.22;3.52;;;;;;;17.87;91.33;96704.84;1632728;86;20982;-86
2022/07/05 05:02:10;;;;;;;4.87;3.47;;;;;;;17.91;91.25;96698.66;1659656;85;21103;-86
2022/07/05 05:04:36;;;;;;;4.90;3.62;;;;;;;17.94;91.30;96711.36;1657718;86;21461;-87
2022/07/05 05:07:02;;;;;;;4.85;4.08;;;;;;;17.97;91.35;96713.03;1632301;86;20979;-86
2022/07/05 05:09:28;;;;;;;6.45;4.70;;;;;;;18.00;91.29;96719.67;1656957;87;20928;-85
2022/07/05 05:11:53;;;;;;;5.10;4.30;;;;;;;18.03;91.39;96721.05;1659011;85;21013;-85
2022/07/05 05:14:19;;;;;;;5.60;4.70;;;;;;;18.06;91.43;96725.86;1656682;86;21343;-85
2022/07/05 05:16:45;;;;;;;8.15;4.83;;;;;;;18.09;91.61;96730.70;1656766;85;20995;-83
2022/07/05 05:19:11;;;;;;;5.80;5.20;;;;;;;18.14;92.10;96747.93;1655630;85;21075;-83
2022/07/05 05:21:37;;;;;;;9.43;5.37;;;;;;;18.17;92.17;96748.80;1661334;86;21007;-83
2022/07/05 05:24:03;;;;;;;7.58;6.10;;;;;;;18.20;92.11;96751.78;1670788;86;21041;-83
2022/07/05 05:26:28;;;;;;;7.28;6.58;;;;;;;18.24;92.35;96757.44;1671153;84;20954;-83
2022/07/05 05:28:54;;;;;;;9.65;6.70;;;;;;;18.27;92.30;96762.25;1671423;84;20986;-83
2022/07/05 05:31:20;;;;;;;6.78;5.28;;;;;;;18.28;92.30;96752.02;1649473;85;20927;-82
2022/07/05 05:33:46;;;;;;;6.28;4.70;;;;;;;18.30;92.34;96749.96;1667945;84;21492;-82
2022/07/05 05:36:11;;;;;;;8.43;6.47;;;;;;;18.33;92.38;96746.08;1676370;85;20947;-82
2022/07/05 05:38:37;;;;;;;7.35;6.20;;;;;;;18.33;92.28;96744.77;1676798;84;21017;-82
2022/07/05 05:41:03;;;;;;;8.35;6.83;;;;;;;18.33;91.97;96748.20;1687866;84;21006;-82
2022/07/05 05:43:29;;;;;;;9.95;6.17;;;;;;;18.37;92.27;96744.09;1672214;84;21317;-83
2022/07/05 05:45:54;;;;;;;11.63;5.97;;;;;;;18.40;92.10;96743.67;1685947;85;21010;-83
2022/07/05 05:48:20;;;;;;;7.78;4.90;;;;;;;18.42;91.90;96739.50;1671051;84;21022;-84
2022/07/05 05:50:46;;;;;;;7.05;5.05;;;;;;;18.40;91.86;96734.47;1699071;84;21397;-83
2022/07/05 05:53:12;;;;;;;5.60;4.85;;;;;;;18.37;91.88;96740.15;1687919;84;21382;-82
2022/07/05 05:55:38;;;;;;;10.90;5.65;;;;;;;18.36;91.92;96739.05;1690616;84;20971;-82
2022/07/05 05:58:21;;;;;;;7.50;6.05;;;;;;;18.36;92.06;96735.91;1678739;84;20992;-82
2022/07/05 06:00:53;;;;;;;8.28;5.25;;;;;;;18.38;91.96;96733.05;1659474;84;21106;-83
2022/07/05 06:03:25;;;;;;;8.93;5.37;;;;;;;18.41;92.07;96730.01;1671115;86;21058;-83
2022/07/05 06:05:51;;;;;;;7.80;5.92;;;;;;;18.43;92.27;96728.75;1671537;84;21042;-84
2022/07/05 06:08:17;;;;;;;7.58;5.45;;;;;;;18.44;92.67;96730.87;1671302;84;21423;-82
2022/07/05 06:10:43;;;;;;;7.12;5.50;;;;;;;18.49;92.38;96732.31;1667558;84;21044;-83
2022/07/05 06:13:11;;;;;;;6.65;5.70;;;;;;;18.53;92.24;96735.59;1673509;84;22098;-84
2022/07/05 06:15:38;;;;;;;9.10;5.75;;;;;;;18.58;92.40;96730.98;1680589;84;21046;-84
2022/07/05 06:18:04;;;;;;;7.85;5.28;;;;;;;18.65;92.70;96729.60;1663303;84;20998;-83
2022/07/05 06:20:32;;;;;;;6.70;4.87;;;;;;;18.71;92.59;96732.64;1671954;84;20999;-83
2022/07/05 06:22:59;;;;;;;8.18;6.17;;;;;;;18.77;92.46;96735.72;1671399;84;20979;-82
2022/07/05 06:25:25;;;;;;;6.83;5.42;;;;;;;18.77;92.08;96731.77;1685268;84;21353;-83
2022/07/05 06:27:54;;;;;;;6.55;5.85;;;;;;;18.80;92.21;96734.74;1673934;84;20947;-83
2022/07/05 06:30:23;;;;;;;5.58;5.00;;;;;;;18.84;92.25;96731.14;1668210;84;21025;-83
2022/07/05 06:32:49;;;;;;;5.87;4.75;;;;;;;18.89;92.24;96733.41;1679370;84;21393;-83
2022/07/05 06:35:15;;;;;;;5.90;5.30;;;;;;;18.94;91.80;96734.55;1671121;84;20947;-83
2022/07/05 06:37:54;;;;;;;8.43;5.67;;;;;;;18.99;92.04;96739.94;1674894;84;20970;-83
2022/07/05 06:40:25;;;;;;;7.47;5.50;;;;;;;19.02;91.88;96732.89;1669317;84;21037;-82
2022/07/05 06:42:51;;;;;;;5.80;5.25;;;;;;;19.02;91.84;96736.33;1671253;84;21034;-82
2022/07/05 06:45:17;;;;;;;5.00;4.53;;;;;;;19.06;91.68;96730.92;1671546;84;20935;-83
2022/07/05 06:47:43;;;;;;;7.45;5.25;;;;;;;19.12;91.89;96737.11;1671793;84;21074;-83
2022/07/05 06:50:10;;;;;;;6.12;5.12;;;;;;;19.18;91.95;96735.67;1652679;83;21066;-82
2022/07/05 06:52:36;;;;;;;5.65;4.90;;;;;;;19.28;91.70;96734.32;1671189;84;21282;-83
2022/07/05 06:55:04;;;;;;;5.25;4.75;;;;;;;19.32;91.33;96731.51;1671226;86;20999;-82
2022/07/05 06:57:29;;;;;;;6.85;4.50;;;;;;;19.35;91.36;96728.41;1671402;86;20966;-83
2022/07/05 06:59:56;;;;;;;7.15;5.45;;;;;;;19.41;91.58;96728.32;1672848;84;21026;-83
2022/07/05 07:02:22;;;;;;;6.17;4.60;;;;;;;19.47;91.04;96730.03;1671296;84;20986;-83
2022/07/05 07:04:48;;;;;;;7.22;5.12;;;;;;;19.49;90.91;96726.64;1671072;84;20967;-83
2022/07/05 07:10:00;;;;;;;5.92;4.87;;;;;;;19.45;90.59;96728.66;1671399;86;21031;-83
2022/07/05 07:12:26;;;;;;;5.33;4.83;;;;;;;19.45;90.58;96724.70;1671125;86;20983;-83
2022/07/05 07:14:51;;;;;;;5.12;4.35;;;;;;;19.44;90.60;96726.54;1671684;84;20943;-83
2022/07/05 07:17:17;;;;;;;6.53;5.03;;;;;;;19.45;90.56;96719.44;1671290;86;21027;-82
2022/07/05 07:19:43;;;;;;;5.42;4.83;;;;;;;19.46;90.41;96717.89;1670853;84;21062;-82
2022/07/05 07:22:08;;;;;;;5.00;4.47;;;;;;;19.46;90.37;96716.56;1666797;85;21393;-83
2022/07/05 07:24:34;;;;;;;5.92;5.15;;;;;;;19.43;90.44;96711.77;1664117;84;21412;-83
2022/07/05 07:27:03;;;;;;;5.92;4.40;;;;;;;19.39;89.76;96708.50;1657856;84;21045;-83
2022/07/05 07:29:34;;;;;;;5.10;4.70;;;;;;;19.38;90.18;96710.86;1638796;84;21031;-85
2022/07/05 07:32:00;;;;;;;5.58;4.92;;;;;;;19.39;90.59;96709.82;1648992;84;20982;-83
2022/07/05 07:34:27;;;;;;;5.65;5.15;;;;;;;19.34;90.53;96707.05;1669480;84;21034;-84
2022/07/05 07:36:53;;;;;;;6.72;4.72;;;;;;;19.28;90.50;96710.09;1670335;86;20936;-83
2022/07/05 07:39:19;;;;;;;7.80;5.70;;;;;;;19.26;90.58;96720.58;1670773;86;20999;-82
2022/07/05 07:41:44;;;;;;;7.33;5.30;;;;;;;19.25;90.76;96723.73;1671340;86;21014;-83
2022/07/05 07:44:11;;;;;;;5.83;5.20;;;;;;;19.25;90.73;96726.88;1670736;86;21052;-83
2022/07/05 07:46:39;;;;;;;5.62;4.83;;;;;;;19.16;90.56;96729.03;1670961;86;21021;-83
2022/07/05 07:49:05;;;;;;;6.72;6.12;;;;;;;19.08;90.58;96718.84;1670847;86;21467;-83
2022/07/05 07:51:32;;;;;;;6.58;5.92;;;;;;;19.04;91.30;96724.28;1670511;86;20955;-83
2022/07/05 07:53:57;;;;;;;6.47;5.15;;;;;;;19.04;91.64;96721.65;1671164;86;20967;-83
2022/07/05 07:56:23;;;;;;;5.67;5.17;;;;;;;19.06;91.65;96724.34;1671611;86;22060;-83
2022/07/05 07:58:49;;;;;;;5.95;5.35;;;;;;;19.07;91.84;96721.19;1672853;85;21009;-82
2022/07/05 08:01:15;;;;;;;5.50;5.10;;;;;;;19.08;91.74;96722.80;1671944;86;20985;-82
2022/07/05 08:03:41;;;;;;;6.20;5.17;;;;;;;19.12;91.98;96722.62;1671734;86;21503;-82
2022/07/05 08:06:08;;;;;;;8.45;7.50;;;;;;;19.17;92.35;96719.58;1666410;84;21034;-83
2022/07/05 08:08:34;;;;;;;7.90;6.92;;;;;;;19.20;92.66;96715.72;1668266;84;20989;-81
2022/07/05 08:11:00;;;;;;;10.75;8.58;;;;;;;19.21;92.55;96710.73;1671002;84;21072;-82
2022/07/05 08:13:26;;;;;;;6.67;6.05;;;;;;;19.28;93.28;96706.14;1670532;86;21061;-82
2022/07/05 08:15:52;;;;;;;8.60;7.75;;;;;;;19.40;92.85;96708.79;1670174;84;21445;-82
2022/07/05 08:23:47;;;;;;;6.05;5.45;;;;;;;19.62;92.23;96707.20;1657216;85;21023;-83
2022/07/05 08:26:13;;;;;;;6.28;5.67;;;;;;;19.70;92.94;96711.33;1656951;86;20936;-83
2022/07/05 08:28:38;;;;;;;6.15;5.60;;;;;;;19.73;92.44;96712.98;1655325;86;20976;-83
2022/07/05 08:31:04;;;;;;;6.08;5.20;;;;;;;19.79;91.74;96712.05;1656484;86;21007;-82
2022/07/05 08:33:30;;;;;;;5.78;5.33;;;;;;;19.81;91.91;96709.17;1656477;86;21056;-83
2022/07/05 08:35:56;;;;;;;6.75;6.15;;;;;;;19.83;91.98;96712.38;1655379;86;21127;-83
2022/07/05 08:38:22;;;;;;;5.45;4.85;;;;;;;19.88;92.42;96715.66;1656053;86;21101;-83
2022/07/05 08:40:51;;;;;;;5.60;4.83;;;;;;;19.93;92.17;96717.08;1655455;86;21045;-83
2022/07/05 08:43:17;;;;;;;8.45;5.97;;;;;;;19.94;92.37;96718.16;1656279;86;20963;-83
2022/07/05 08:45:43;;;;;;;7.33;5.30;;;;;;;19.88;91.90;96720.41;1655650;86;22160;-83
2022/07/05 08:48:10;;;;;;;5.50;4.95;;;;;;;19.91;92.12;96716.51;1659191;86;21039;-84
2022/07/05 08:50:37;;;;;;;6.90;5.33;;;;;;;19.92;91.99;96718.11;1656749;86;21070;-83
2022/07/05 08:53:03;;;;;;;5.53;5.05;;;;;;;19.93;91.89;96714.44;1636916;86;21034;-84
2022/07/05 08:55:29;;;;;;;7.28;5.25;;;;;;;19.93;91.92;96710.48;1651718;86;21223;-83
2022/07/05 08:57:56;;;;;;;4.40;4.00;;;;;;;19.87;91.90;96713.54;1658505;86;20979;-84
2022/07/05 09:00:23;;;;;;;4.92;4.42;;;;;;;19.86;91.01;96713.77;1655968;86;21052;-84
2022/07/05 09:02:50;;;;;;;5.08;4.35;;;;;;;19.88;91.43;96719.09;1649320;86;20982;-84
2022/07/05 09:05:16;;;;;;;4.87;4.42;;;;;;;19.91;91.48;96724.42;1652915;86;21056;-85
2022/07/05 09:07:50;;;;;;;5.85;5.25;;;;;;;19.91;91.42;96735.77;1651298;86;21028;-84
2022/07/05 09:10:16;;;;;;;5.67;4.90;;;;;;;19.95;92.28;96733.47;1660053;85;20971;-85
2022/07/05 09:12:42;;;;;;;6.35;4.97;;;;;;;19.96;91.26;96729.79;1650290;86;21065;-83
2022/07/05 09:15:09;;;;;;;6.33;4.60;;;;;;;19.92;91.44;96726.02;1654036;86;21031;-84
2022/07/05 09:17:45;;;;;;;5.15;4.72;;;;;;;19.93;91.52;96730.26;1654648;85;21358;-84
2022/07/05 09:20:18;;;;;;;4.90;4.40;;;;;;;19.95;91.48;96733.47;1656908;85;21039;-83
2022/07/05 09:22:54;;;;;;;4.97;4.30;;;;;;;19.95;91.85;96729.51;1653382;85;21005;-84
2022/07/05 09:25:31;;;;;;;5.35;3.90;;;;;;;19.96;91.65;96731.11;1655420;86;21034;-84
2022/07/05 09:28:04;;;;;;;5.30;4.08;;;;;;;19.91;91.38;96731.81;1654804;85;20983;-83
2022/07/05 09:30:38;;;;;;;5.40;4.87;;;;;;;19.91;91.74;96730.49;1656842;86;20984;-83
2022/07/05 09:33:13;;;;;;;6.33;5.05;;;;;;;19.92;91.58;96728.66;1657748;86;20991;-84
2022/07/05 09:35:40;;;;;;;5.22;4.67;;;;;;;19.91;91.51;96729.17;1656001;86;21001;-83
2022/07/05 09:38:20;;;;;;;7.17;4.60;;;;;;;19.89;91.54;96724.66;1656115;86;21022;-84
2022/07/05 09:40:51;;;;;;;6.62;4.08;;;;;;;19.88;91.54;96720.94;1636515;86;20994;-84
2022/07/05 09:43:21;;;;;;;5.92;4.30;;;;;;;19.91;91.64;96720.46;1656766;86;21036;-85
2022/07/05 09:46:01;;;;;;;10.40;5.85;;;;;;;19.91;92.05;96725.73;1656256;86;21421;-84
2022/07/05 09:48:28;;;;;;;7.67;4.70;;;;;;;19.90;92.08;96720.98;1656103;87;21406;-84
2022/07/05 09:51:04;;;;;;;6.62;5.95;;;;;;;19.88;92.49;96719.61;1653450;86;21007;-85
2022/07/05 09:53:49;;;;;;;7.15;5.10;;;;;;;19.82;91.79;96721.33;1656186;86;21694;-84
2022/07/05 09:56:14;;;;;;;8.20;4.70;;;;;;;19.84;92.13;96720.57;1656051;87;20955;-84
2022/07/05 09:58:40;;;;;;;7.17;4.85;;;;;;;19.84;92.48;96724.53;1656367;86;21382;-85
2022/07/05 10:01:29;;;;;;;8.75;4.62;;;;;;;19.80;92.51;96716.80;1656707;86;21059;-85
2022/07/05 10:03:58;;;;;;;7.67;4.47;;;;;;;19.79;92.25;96720.47;1656363;87;21035;-83
2022/07/05 10:06:26;;;;;;;5.40;4.55;;;;;;;19.81;92.48;96725.52;1654630;86;20979;-84
2022/07/05 10:08:55;;;;;;;6.87;4.28;;;;;;;19.82;92.41;96731.87;1656067;87;21043;-84
2022/07/05 10:11:21;;;;;;;5.28;4.78;;;;;;;19.83;92.30;96722.92;1653272;86;21031;-84
2022/07/05 10:13:52;;;;;;;7.85;5.15;;;;;;;19.79;92.07;96724.43;1653302;86;21019;-85
2022/07/05 10:16:19;;;;;;;6.83;4.55;;;;;;;19.72;92.00;96729.84;1656303;86;21029;-84
2022/07/05 10:18:46;;;;;;;5.20;4.08;;;;;;;19.73;92.50;96726.69;1656688;86;21050;-84
2022/07/05 10:21:14;;;;;;;6.25;4.22;;;;;;;19.72;92.23;96727.20;1657453;86;21015;-84
2022/07/05 10:23:46;;;;;;;4.97;4.00;;;;;;;19.71;92.43;96727.44;1650839;84;21404;-86
2022/07/05 10:26:13;;;;;;;5.15;4.47;;;;;;;19.67;92.35;96732.34;1669504;84;21440;-84
2022/07/05 10:28:41;;;;;;;6.10;4.42;;;;;;;19.67;92.68;96734.98;1671027;86;21018;-86
2022/07/05 10:31:10;;;;;;;5.67;4.62;;;;;;;19.65;92.34;96737.05;1670490;86;21094;-84
2022/07/05 10:33:36;;;;;;;4.65;4.25;;;;;;;19.64;91.98;96735.44;1670789;86;21532;-84
2022/07/05 10:36:03;;;;;;;4.62;4.22;;;;;;;19.64;92.02;96735.44;1660883;84;21049;-83
2022/07/05 10:38:29;;;;;;;4.40;4.00;;;;;;;19.67;92.25;96731.53;1663997;84;21001;-83
2022/07/05 10:40:58;;;;;;;5.35;4.80;;;;;;;19.73;92.61;96732.75;1671272;85;21034;-83
2022/07/05 10:43:24;;;;;;;5.30;4.90;;;;;;;19.73;92.38;96734.08;1663908;84;21556;-83
2022/07/05 10:45:51;;;;;;;5.65;4.22;;;;;;;19.73;92.75;96731.95;1666065;86;21027;-83
2022/07/05 10:48:22;;;;;;;4.80;4.35;;;;;;;19.69;92.45;96734.77;1667122;85;21412;-84
2022/07/05 10:51:10;;;;;;;6.42;5.42;;;;;;;19.61;91.35;96743.02;1669997;84;20995;-84
2022/07/05 10:53:42;;;;;;;5.33;4.75;;;;;;;19.63;92.40;96738.31;1669692;84;21421;-84
2022/07/05 10:56:12;;;;;;;7.42;4.70;;;;;;;19.64;92.69;96737.28;1669668;84;21030;-84
2022/07/05 10:58:41;;;;;;;5.97;5.47;;;;;;;19.62;92.59;96734.88;1671431;85;20970;-84
2022/07/05 11:01:24;;;;;;;5.70;4.20;;;;;;;19.62;92.71;96734.88;1666096;84;21012;-84
2022/07/05 11:04:06;;;;;;;5.40;4.80;;;;;;;19.63;92.80;96725.13;1660026;86;21026;-86
2022/07/05 11:06:43;;;;;;;6.83;6.12;;;;;;;19.60;92.67;96729.55;1670856;85;20970;-84
2022/07/05 11:09:15;;;;;;;6.78;5.97;;;;;;;19.60;92.99;96733.50;1671290;86;21022;-84
2022/07/05 11:11:45;;;;;;;7.90;7.20;;;;;;;19.59;93.03;96725.31;1652706;84;21034;-84
2022/07/05 11:14:26;;;;;;;8.40;7.53;;;;;;;19.58;93.11;96731.10;1671285;86;21394;-84
2022/07/05 11:17:19;;;;;;;8.48;7.67;;;;;;;19.59;93.49;96727.43;1671344;84;21052;-85
2022/07/05 11:20:05;;;;;;;8.63;7.83;;;;;;;19.60;93.27;96726.39;1655459;84;21026;-91
2022/07/05 11:22:32;;;;;;;9.78;8.83;;;;;;;19.54;93.41;96723.37;1668788;84;21005;-84
2022/07/05 11:24:58;;;;;;;8.13;7.37;;;;;;;19.53;93.48;96720.94;1656788;87;21499;-84
2022/07/05 11:27:24;;;;;;;8.33;7.58;;;;;;;19.52;93.60;96719.31;1653745;86;21066;-84
2022/07/05 11:29:52;;;;;;;7.58;6.70;;;;;;;19.57;93.97;96712.37;1654655;86;20980;-83
2022/07/05 11:32:30;;;;;;;11.75;6.22;;;;;;;19.64;94.05;96720.14;1655514;86;21074;-83
2022/07/05 11:35:16;;;;;;;8.23;5.33;;;;;;;19.72;93.99;96720.61;1654696;86;21481;-83
2022/07/05 11:38:01;;;;;;;7.58;6.87;;;;;;;19.79;94.16;96723.91;1662348;85;21337;-83
2022/07/05 11:40:31;;;;;;;8.43;7.62;;;;;;;19.79;93.72;96717.84;1650831;86;20971;-83
2022/07/05 11:42:56;;;;;;;7.55;6.80;;;;;;;19.76;93.22;96722.26;1663074;86;21004;-84
2022/07/05 11:45:22;;;;;;;10.28;7.87;;;;;;;19.70;92.93;96721.36;1656957;86;20998;-83
2022/07/05 11:47:48;;;;;;;7.55;6.62;;;;;;;19.66;93.48;96717.55;1657140;86;21430;-84